sensor_id;sensor_type;location;lat;lon;timestamp;temperature;humidity
55642;DHT22;41509;53.108;6.100;2022-08-27T00:01:59;16.00;99.90
55642;DHT22;41509;53.108;6.100;2022-08-27T00:04:25;16.00;99.90
55642;DHT22;41509;53.108;6.100;2022-08-27T00:06:51;16.00;99.90
55642;DHT22;41509;53.108;6.100;2022-08-27T00:09:17;16.00;99.90
55642;DHT22;41509;53.108;6.100;2022-08-27T00:11:42;16.00;99.90
55642;DHT22;41509;53.108;6.100;2022-08-27T00:14:09;16.00;99.90
55642;DHT22;41509;53.108;6.100;2022-08-27T00:16:35;16.00;99.90
55642;DHT22;41509;53.108;6.100;2022-08-27T00:19:01;15.90;99.90
55642;DHT22;41509;53.108;6.100;2022-08-27T00:21:26;15.90;99.90
55642;DHT22;41509;53.108;6.100;2022-08-27T00:23:52;16.00;99.90
55642;DHT22;41509;53.108;6.100;2022-08-27T00:26:18;15.90;99.90
55642;DHT22;41509;53.108;6.100;2022-08-27T00:28:44;16.00;99.90
55642;DHT22;41509;53.108;6.100;2022-08-27T00:31:10;15.90;99.90
55642;DHT22;41509;53.108;6.100;2022-08-27T00:33:35;15.90;99.90
55642;DHT22;41509;53.108;6.100;2022-08-27T00:36:02;15.90;99.90
55642;DHT22;41509;53.108;6.100;2022-08-27T00:38:28;15.90;99.90
55642;DHT22;41509;53.108;6.100;2022-08-27T00:40:54;15.90;99.90
55642;DHT22;41509;53.108;6.100;2022-08-27T00:43:22;15.90;99.90
55642;DHT22;41509;53.108;6.100;2022-08-27T00:45:48;15.90;99.90
55642;DHT22;41509;53.108;6.100;2022-08-27T00:48:15;15.90;99.90
55642;DHT22;41509;53.108;6.100;2022-08-27T00:50:46;15.90;99.90
55642;DHT22;41509;53.108;6.100;2022-08-27T00:53:16;15.90;99.90
55642;DHT22;41509;53.108;6.100;2022-08-27T00:55:46;15.80;99.90
55642;DHT22;41509;53.108;6.100;2022-08-27T01:00:41;15.80;99.90
55642;DHT22;41509;53.108;6.100;2022-08-27T01:03:08;15.80;99.90
55642;DHT22;41509;53.108;6.100;2022-08-27T01:05:34;15.80;99.90
55642;DHT22;41509;53.108;6.100;2022-08-27T01:08:07;15.80;99.90
55642;DHT22;41509;53.108;6.100;2022-08-27T01:10:33;15.90;99.90
55642;DHT22;41509;53.108;6.100;2022-08-27T01:13:00;15.90;99.90
55642;DHT22;41509;53.108;6.100;2022-08-27T01:15:27;15.90;99.90
55642;DHT22;41509;53.108;6.100;2022-08-27T01:17:54;15.80;99.90
55642;DHT22;41509;53.108;6.100;2022-08-27T01:20:30;15.90;99.90
55642;DHT22;41509;53.108;6.100;2022-08-27T01:23:21;15.90;99.90
55642;DHT22;41509;53.108;6.100;2022-08-27T01:25:48;15.90;99.90
55642;DHT22;41509;53.108;6.100;2022-08-27T01:28:15;15.90;99.90
55642;DHT22;41509;53.108;6.100;2022-08-27T01:30:41;15.90;99.90
55642;DHT22;41509;53.108;6.100;2022-08-27T01:33:09;15.90;99.90
55642;DHT22;41509;53.108;6.100;2022-08-27T01:35:35;15.90;99.90
55642;DHT22;41509;53.108;6.100;2022-08-27T01:38:01;15.90;99.90
55642;DHT22;41509;53.108;6.100;2022-08-27T01:40:27;15.90;99.90
55642;DHT22;41509;53.108;6.100;2022-08-27T01:42:54;15.80;99.90
55642;DHT22;41509;53.108;6.100;2022-08-27T01:45:28;15.90;99.90
55642;DHT22;41509;53.108;6.100;2022-08-27T01:47:55;15.80;99.90
55642;DHT22;41509;53.108;6.100;2022-08-27T01:50:30;15.80;99.90
55642;DHT22;41509;53.108;6.100;2022-08-27T01:52:59;15.80;99.90
55642;DHT22;41509;53.108;6.100;2022-08-27T01:55:26;15.80;99.90
55642;DHT22;41509;53.108;6.100;2022-08-27T01:57:53;15.70;99.90
55642;DHT22;41509;53.108;6.100;2022-08-27T02:00:25;15.80;99.90
55642;DHT22;41509;53.108;6.100;2022-08-27T02:02:51;15.70;99.90
55642;DHT22;41509;53.108;6.100;2022-08-27T02:05:17;15.70;99.90
55642;DHT22;41509;53.108;6.100;2022-08-27T02:07:43;15.70;99.90
55642;DHT22;41509;53.108;6.100;2022-08-27T02:10:13;15.70;99.90
55642;DHT22;41509;53.108;6.100;2022-08-27T02:12:40;15.60;99.90
55642;DHT22;41509;53.108;6.100;2022-08-27T02:15:06;15.60;99.90
55642;DHT22;41509;53.108;6.100;2022-08-27T02:17:32;15.60;99.90
55642;DHT22;41509;53.108;6.100;2022-08-27T02:19:58;15.50;99.90
55642;DHT22;41509;53.108;6.100;2022-08-27T02:22:26;15.50;99.90
55642;DHT22;41509;53.108;6.100;2022-08-27T02:24:51;15.40;99.90
55642;DHT22;41509;53.108;6.100;2022-08-27T02:27:18;15.40;99.90
55642;DHT22;41509;53.108;6.100;2022-08-27T02:29:47;15.50;99.90
55642;DHT22;41509;53.108;6.100;2022-08-27T02:32:13;15.50;99.90
55642;DHT22;41509;53.108;6.100;2022-08-27T02:34:43;15.50;99.90
55642;DHT22;41509;53.108;6.100;2022-08-27T02:37:09;15.50;99.90
55642;DHT22;41509;53.108;6.100;2022-08-27T02:39:35;15.50;99.90
55642;DHT22;41509;53.108;6.100;2022-08-27T02:42:01;15.50;99.90
55642;DHT22;41509;53.108;6.100;2022-08-27T02:44:27;15.40;99.90
55642;DHT22;41509;53.108;6.100;2022-08-27T02:46:52;15.40;99.90
55642;DHT22;41509;53.108;6.100;2022-08-27T02:49:18;15.40;99.90
55642;DHT22;41509;53.108;6.100;2022-08-27T02:51:44;15.40;99.90
55642;DHT22;41509;53.108;6.100;2022-08-27T02:54:10;15.40;99.90
55642;DHT22;41509;53.108;6.100;2022-08-27T02:56:36;15.30;99.90
55642;DHT22;41509;53.108;6.100;2022-08-27T02:59:02;15.30;99.90
55642;DHT22;41509;53.108;6.100;2022-08-27T03:01:28;15.30;99.90
55642;DHT22;41509;53.108;6.100;2022-08-27T03:03:55;15.30;99.90
55642;DHT22;41509;53.108;6.100;2022-08-27T03:06:21;15.30;99.90
55642;DHT22;41509;53.108;6.100;2022-08-27T03:08:47;15.30;99.90
55642;DHT22;41509;53.108;6.100;2022-08-27T03:11:12;15.30;99.90
55642;DHT22;41509;53.108;6.100;2022-08-27T03:13:39;15.30;99.90
55642;DHT22;41509;53.108;6.100;2022-08-27T03:16:05;15.40;99.90
55642;DHT22;41509;53.108;6.100;2022-08-27T03:18:32;15.40;99.90
55642;DHT22;41509;53.108;6.100;2022-08-27T03:20:58;15.40;99.90
55642;DHT22;41509;53.108;6.100;2022-08-27T03:23:27;15.40;99.90
55642;DHT22;41509;53.108;6.100;2022-08-27T03:25:55;15.40;99.90
55642;DHT22;41509;53.108;6.100;2022-08-27T03:28:23;15.40;99.90
55642;DHT22;41509;53.108;6.100;2022-08-27T03:30:58;15.50;99.90
55642;DHT22;41509;53.108;6.100;2022-08-27T03:33:31;15.50;99.90
55642;DHT22;41509;53.108;6.100;2022-08-27T03:35:57;15.40;99.90
55642;DHT22;41509;53.108;6.100;2022-08-27T03:38:24;15.50;99.90
55642;DHT22;41509;53.108;6.100;2022-08-27T03:40:51;15.50;99.90
55642;DHT22;41509;53.108;6.100;2022-08-27T03:43:19;15.50;99.90
55642;DHT22;41509;53.108;6.100;2022-08-27T03:45:46;15.50;99.90
55642;DHT22;41509;53.108;6.100;2022-08-27T03:48:13;15.50;99.90
55642;DHT22;41509;53.108;6.100;2022-08-27T03:50:42;15.60;99.90
55642;DHT22;41509;53.108;6.100;2022-08-27T03:53:09;15.60;99.90
55642;DHT22;41509;53.108;6.100;2022-08-27T03:55:38;15.70;99.90
55642;DHT22;41509;53.108;6.100;2022-08-27T03:58:10;15.70;99.90
55642;DHT22;41509;53.108;6.100;2022-08-27T04:00:38;15.70;99.90
55642;DHT22;41509;53.108;6.100;2022-08-27T04:03:06;15.70;99.90
55642;DHT22;41509;53.108;6.100;2022-08-27T04:05:33;15.70;99.90
55642;DHT22;41509;53.108;6.100;2022-08-27T04:07:59;15.70;99.90
55642;DHT22;41509;53.108;6.100;2022-08-27T04:10:25;15.70;99.90
55642;DHT22;41509;53.108;6.100;2022-08-27T04:12:52;15.70;99.90
55642;DHT22;41509;53.108;6.100;2022-08-27T04:15:18;15.70;99.90
55642;DHT22;41509;53.108;6.100;2022-08-27T04:17:43;15.70;99.90
55642;DHT22;41509;53.108;6.100;2022-08-27T04:20:10;15.80;99.90
55642;DHT22;41509;53.108;6.100;2022-08-27T04:22:37;15.80;99.90
55642;DHT22;41509;53.108;6.100;2022-08-27T04:25:05;15.80;99.90
55642;DHT22;41509;53.108;6.100;2022-08-27T04:27:31;15.80;99.90
55642;DHT22;41509;53.108;6.100;2022-08-27T04:29:59;15.80;99.90
55642;DHT22;41509;53.108;6.100;2022-08-27T04:32:26;15.80;99.90
55642;DHT22;41509;53.108;6.100;2022-08-27T04:34:53;15.80;99.90
55642;DHT22;41509;53.108;6.100;2022-08-27T04:37:19;15.80;99.90
55642;DHT22;41509;53.108;6.100;2022-08-27T04:39:45;15.80;99.90
55642;DHT22;41509;53.108;6.100;2022-08-27T04:42:11;15.80;99.90
55642;DHT22;41509;53.108;6.100;2022-08-27T04:44:36;15.80;99.90
55642;DHT22;41509;53.108;6.100;2022-08-27T04:47:04;15.80;99.90
55642;DHT22;41509;53.108;6.100;2022-08-27T04:49:30;15.80;99.90
55642;DHT22;41509;53.108;6.100;2022-08-27T04:51:57;15.80;99.90
55642;DHT22;41509;53.108;6.100;2022-08-27T04:54:23;15.80;99.90
55642;DHT22;41509;53.108;6.100;2022-08-27T04:56:49;15.80;99.90
55642;DHT22;41509;53.108;6.100;2022-08-27T04:59:15;15.70;99.90
55642;DHT22;41509;53.108;6.100;2022-08-27T05:01:42;15.70;99.90
55642;DHT22;41509;53.108;6.100;2022-08-27T05:04:10;15.70;99.90
55642;DHT22;41509;53.108;6.100;2022-08-27T05:06:36;15.70;99.90
55642;DHT22;41509;53.108;6.100;2022-08-27T05:09:03;15.70;99.90
55642;DHT22;41509;53.108;6.100;2022-08-27T05:11:29;15.70;99.90
55642;DHT22;41509;53.108;6.100;2022-08-27T05:14:03;15.60;99.90
55642;DHT22;41509;53.108;6.100;2022-08-27T05:16:29;15.60;99.90
55642;DHT22;41509;53.108;6.100;2022-08-27T05:18:57;15.60;99.90
55642;DHT22;41509;53.108;6.100;2022-08-27T05:21:29;15.60;99.90
55642;DHT22;41509;53.108;6.100;2022-08-27T05:23:57;15.60;99.90
55642;DHT22;41509;53.108;6.100;2022-08-27T05:26:24;15.70;99.90
55642;DHT22;41509;53.108;6.100;2022-08-27T05:28:50;15.70;99.90
55642;DHT22;41509;53.108;6.100;2022-08-27T05:31:19;15.70;99.90
55642;DHT22;41509;53.108;6.100;2022-08-27T05:33:46;15.80;99.90
55642;DHT22;41509;53.108;6.100;2022-08-27T05:36:17;15.80;99.90
55642;DHT22;41509;53.108;6.100;2022-08-27T05:38:45;15.80;99.90
55642;DHT22;41509;53.108;6.100;2022-08-27T05:41:16;15.90;99.90
55642;DHT22;41509;53.108;6.100;2022-08-27T05:43:43;15.90;99.90
55642;DHT22;41509;53.108;6.100;2022-08-27T05:46:12;15.90;99.90
55642;DHT22;41509;53.108;6.100;2022-08-27T05:48:39;16.00;99.90
55642;DHT22;41509;53.108;6.100;2022-08-27T05:51:16;16.00;99.90
55642;DHT22;41509;53.108;6.100;2022-08-27T05:53:42;16.10;99.90
55642;DHT22;41509;53.108;6.100;2022-08-27T05:56:17;16.10;99.90
55642;DHT22;41509;53.108;6.100;2022-08-27T05:58:43;16.10;99.90
55642;DHT22;41509;53.108;6.100;2022-08-27T06:01:29;16.20;99.90
55642;DHT22;41509;53.108;6.100;2022-08-27T06:03:55;16.20;99.90
55642;DHT22;41509;53.108;6.100;2022-08-27T06:06:21;16.20;99.90
55642;DHT22;41509;53.108;6.100;2022-08-27T06:08:48;16.30;99.90
55642;DHT22;41509;53.108;6.100;2022-08-27T06:11:16;16.40;99.90
55642;DHT22;41509;53.108;6.100;2022-08-27T06:13:44;16.40;99.90
55642;DHT22;41509;53.108;6.100;2022-08-27T06:16:13;16.50;99.90
55642;DHT22;41509;53.108;6.100;2022-08-27T06:18:44;16.50;99.90
55642;DHT22;41509;53.108;6.100;2022-08-27T06:21:14;16.60;99.90
55642;DHT22;41509;53.108;6.100;2022-08-27T06:23:40;16.60;99.90
55642;DHT22;41509;53.108;6.100;2022-08-27T06:26:10;16.70;99.90
55642;DHT22;41509;53.108;6.100;2022-08-27T06:28:37;16.70;99.90
55642;DHT22;41509;53.108;6.100;2022-08-27T06:31:14;16.80;99.90
55642;DHT22;41509;53.108;6.100;2022-08-27T06:33:42;16.80;99.90
55642;DHT22;41509;53.108;6.100;2022-08-27T06:36:11;16.90;99.90
55642;DHT22;41509;53.108;6.100;2022-08-27T06:38:37;16.90;99.90
55642;DHT22;41509;53.108;6.100;2022-08-27T06:41:04;16.90;99.90
55642;DHT22;41509;53.108;6.100;2022-08-27T06:43:30;17.00;99.90
55642;DHT22;41509;53.108;6.100;2022-08-27T06:45:56;17.10;99.90
55642;DHT22;41509;53.108;6.100;2022-08-27T06:48:21;17.10;99.90
55642;DHT22;41509;53.108;6.100;2022-08-27T06:50:47;17.10;99.90
55642;DHT22;41509;53.108;6.100;2022-08-27T06:53:13;17.20;99.90
55642;DHT22;41509;53.108;6.100;2022-08-27T06:55:44;17.20;99.90
55642;DHT22;41509;53.108;6.100;2022-08-27T06:58:11;17.20;99.90
55642;DHT22;41509;53.108;6.100;2022-08-27T07:00:37;17.20;99.90
55642;DHT22;41509;53.108;6.100;2022-08-27T07:03:06;17.20;99.90
55642;DHT22;41509;53.108;6.100;2022-08-27T07:05:33;17.30;99.90
55642;DHT22;41509;53.108;6.100;2022-08-27T07:07:59;17.30;99.90
55642;DHT22;41509;53.108;6.100;2022-08-27T07:10:26;17.40;99.90
55642;DHT22;41509;53.108;6.100;2022-08-27T07:12:52;17.40;99.90
55642;DHT22;41509;53.108;6.100;2022-08-27T07:15:18;17.40;99.90
55642;DHT22;41509;53.108;6.100;2022-08-27T07:17:44;17.40;99.90
55642;DHT22;41509;53.108;6.100;2022-08-27T07:20:12;17.50;99.90
55642;DHT22;41509;53.108;6.100;2022-08-27T07:25:07;17.60;99.90
55642;DHT22;41509;53.108;6.100;2022-08-27T07:27:34;17.70;99.90
55642;DHT22;41509;53.108;6.100;2022-08-27T07:30:01;17.70;99.90
55642;DHT22;41509;53.108;6.100;2022-08-27T07:32:28;17.70;99.90
55642;DHT22;41509;53.108;6.100;2022-08-27T07:34:53;17.80;99.90
55642;DHT22;41509;53.108;6.100;2022-08-27T07:37:19;17.80;99.90
55642;DHT22;41509;53.108;6.100;2022-08-27T07:39:46;17.90;99.90
55642;DHT22;41509;53.108;6.100;2022-08-27T07:42:12;17.90;99.90
55642;DHT22;41509;53.108;6.100;2022-08-27T07:44:56;18.10;99.90
55642;DHT22;41509;53.108;6.100;2022-08-27T07:47:22;18.20;99.90
55642;DHT22;41509;53.108;6.100;2022-08-27T07:49:48;18.30;99.90
55642;DHT22;41509;53.108;6.100;2022-08-27T07:52:13;18.40;99.90
55642;DHT22;41509;53.108;6.100;2022-08-27T07:54:41;18.50;99.90
55642;DHT22;41509;53.108;6.100;2022-08-27T07:57:09;18.50;99.90
55642;DHT22;41509;53.108;6.100;2022-08-27T07:59:36;18.50;99.90
55642;DHT22;41509;53.108;6.100;2022-08-27T08:02:01;18.50;99.90
55642;DHT22;41509;53.108;6.100;2022-08-27T08:04:27;18.50;99.90
55642;DHT22;41509;53.108;6.100;2022-08-27T08:06:53;18.50;99.90
55642;DHT22;41509;53.108;6.100;2022-08-27T08:09:21;18.50;99.90
55642;DHT22;41509;53.108;6.100;2022-08-27T08:11:49;18.50;99.90
55642;DHT22;41509;53.108;6.100;2022-08-27T08:14:15;18.50;99.90
55642;DHT22;41509;53.108;6.100;2022-08-27T08:16:41;18.50;99.90
55642;DHT22;41509;53.108;6.100;2022-08-27T08:19:07;18.50;99.90
55642;DHT22;41509;53.108;6.100;2022-08-27T08:21:33;18.60;99.90
55642;DHT22;41509;53.108;6.100;2022-08-27T08:23:59;18.50;99.90
55642;DHT22;41509;53.108;6.100;2022-08-27T08:26:27;18.60;99.90
55642;DHT22;41509;53.108;6.100;2022-08-27T08:28:53;18.60;99.90
55642;DHT22;41509;53.108;6.100;2022-08-27T08:31:19;18.60;99.90
55642;DHT22;41509;53.108;6.100;2022-08-27T08:33:45;18.60;99.90
55642;DHT22;41509;53.108;6.100;2022-08-27T08:36:16;18.60;99.90
55642;DHT22;41509;53.108;6.100;2022-08-27T08:38:43;18.60;99.90
55642;DHT22;41509;53.108;6.100;2022-08-27T08:41:33;18.70;99.90
55642;DHT22;41509;53.108;6.100;2022-08-27T08:44:09;18.70;99.90
55642;DHT22;41509;53.108;6.100;2022-08-27T08:46:40;18.80;99.90
55642;DHT22;41509;53.108;6.100;2022-08-27T08:49:41;18.80;99.90
55642;DHT22;41509;53.108;6.100;2022-08-27T08:57:40;19.00;99.90
55642;DHT22;41509;53.108;6.100;2022-08-27T09:00:11;19.20;99.90
55642;DHT22;41509;53.108;6.100;2022-08-27T09:02:39;19.30;99.90
55642;DHT22;41509;53.108;6.100;2022-08-27T09:05:06;19.30;99.90
55642;DHT22;41509;53.108;6.100;2022-08-27T09:12:58;19.40;99.90
55642;DHT22;41509;53.108;6.100;2022-08-27T09:15:28;19.50;99.90
55642;DHT22;41509;53.108;6.100;2022-08-27T09:18:11;19.50;99.90
55642;DHT22;41509;53.108;6.100;2022-08-27T09:20:38;19.60;99.90
55642;DHT22;41509;53.108;6.100;2022-08-27T09:25:41;19.70;99.90
55642;DHT22;41509;53.108;6.100;2022-08-27T09:28:20;19.80;99.90
55642;DHT22;41509;53.108;6.100;2022-08-27T09:31:27;19.90;99.90
55642;DHT22;41509;53.108;6.100;2022-08-27T09:33:55;19.90;99.90
55642;DHT22;41509;53.108;6.100;2022-08-27T09:36:20;19.90;99.90
55642;DHT22;41509;53.108;6.100;2022-08-27T09:38:58;19.80;99.90
55642;DHT22;41509;53.108;6.100;2022-08-27T09:41:28;19.90;99.90
55642;DHT22;41509;53.108;6.100;2022-08-27T09:44:01;20.00;99.90
55642;DHT22;41509;53.108;6.100;2022-08-27T09:46:27;20.20;99.90
55642;DHT22;41509;53.108;6.100;2022-08-27T09:48:53;20.40;99.90
55642;DHT22;41509;53.108;6.100;2022-08-27T09:51:22;20.50;99.90
55642;DHT22;41509;53.108;6.100;2022-08-27T09:54:00;20.70;99.90
55642;DHT22;41509;53.108;6.100;2022-08-27T09:56:49;20.80;99.90
55642;DHT22;41509;53.108;6.100;2022-08-27T09:59:21;20.90;99.90
55642;DHT22;41509;53.108;6.100;2022-08-27T10:02:00;20.80;99.90
55642;DHT22;41509;53.108;6.100;2022-08-27T10:04:45;20.80;99.90
55642;DHT22;41509;53.108;6.100;2022-08-27T10:07:40;20.70;99.90
55642;DHT22;41509;53.108;6.100;2022-08-27T10:10:17;20.60;99.90
55642;DHT22;41509;53.108;6.100;2022-08-27T10:12:58;20.60;99.90
55642;DHT22;41509;53.108;6.100;2022-08-27T10:15:42;20.60;99.90
55642;DHT22;41509;53.108;6.100;2022-08-27T10:18:29;20.50;99.90
55642;DHT22;41509;53.108;6.100;2022-08-27T10:21:23;20.60;99.90
55642;DHT22;41509;53.108;6.100;2022-08-27T10:26:53;20.80;99.90
55642;DHT22;41509;53.108;6.100;2022-08-27T10:32:26;20.80;99.90
55642;DHT22;41509;53.108;6.100;2022-08-27T10:35:15;20.90;99.90
55642;DHT22;41509;53.108;6.100;2022-08-27T10:38:06;20.90;99.90
55642;DHT22;41509;53.108;6.100;2022-08-27T10:46:00;20.80;99.90
55642;DHT22;41509;53.108;6.100;2022-08-27T10:48:39;20.80;99.90
55642;DHT22;41509;53.108;6.100;2022-08-27T10:51:14;20.80;99.90
55642;DHT22;41509;53.108;6.100;2022-08-27T10:53:57;20.80;99.90
55642;DHT22;41509;53.108;6.100;2022-08-27T10:56:53;20.80;99.90
55642;DHT22;41509;53.108;6.100;2022-08-27T10:59:37;20.90;99.90
55642;DHT22;41509;53.108;6.100;2022-08-27T11:05:23;20.80;99.90
55642;DHT22;41509;53.108;6.100;2022-08-27T11:07:55;20.80;99.90
55642;DHT22;41509;53.108;6.100;2022-08-27T11:10:39;20.80;99.90
55642;DHT22;41509;53.108;6.100;2022-08-27T11:13:12;21.00;99.90
55642;DHT22;41509;53.108;6.100;2022-08-27T11:15:44;21.00;99.90
55642;DHT22;41509;53.108;6.100;2022-08-27T11:20:59;21.10;99.90
55642;DHT22;41509;53.108;6.100;2022-08-27T11:23:52;21.20;99.90
55642;DHT22;41509;53.108;6.100;2022-08-27T11:26:18;21.40;99.90
55642;DHT22;41509;53.108;6.100;2022-08-27T11:28:59;21.70;99.90
55642;DHT22;41509;53.108;6.100;2022-08-27T11:31:34;21.90;99.90
55642;DHT22;41509;53.108;6.100;2022-08-27T11:34:07;22.20;99.90
55642;DHT22;41509;53.108;6.100;2022-08-27T11:42:17;22.20;99.90
55642;DHT22;41509;53.108;6.100;2022-08-27T11:44:48;22.20;99.90
55642;DHT22;41509;53.108;6.100;2022-08-27T11:47:21;22.40;99.90
55642;DHT22;41509;53.108;6.100;2022-08-27T11:50:00;22.50;99.90
55642;DHT22;41509;53.108;6.100;2022-08-27T11:52:34;22.60;99.90
55642;DHT22;41509;53.108;6.100;2022-08-27T11:57:39;22.40;99.90
55642;DHT22;41509;53.108;6.100;2022-08-27T12:03:02;22.10;99.90
55642;DHT22;41509;53.108;6.100;2022-08-27T12:06:08;22.10;99.90
55642;DHT22;41509;53.108;6.100;2022-08-27T12:08:30;22.20;99.90
55642;DHT22;41509;53.108;6.100;2022-08-27T12:13:41;22.60;99.90
55642;DHT22;41509;53.108;6.100;2022-08-27T12:19:10;22.90;99.90
55642;DHT22;41509;53.108;6.100;2022-08-27T12:24:39;23.10;99.90
55642;DHT22;41509;53.108;6.100;2022-08-27T12:32:44;22.80;99.90
55642;DHT22;41509;53.108;6.100;2022-08-27T12:35:25;23.00;99.90
55642;DHT22;41509;53.108;6.100;2022-08-27T12:38:04;23.10;99.90
55642;DHT22;41509;53.108;6.100;2022-08-27T12:41:00;23.00;99.90
55642;DHT22;41509;53.108;6.100;2022-08-27T12:43:35;22.90;99.90
55642;DHT22;41509;53.108;6.100;2022-08-27T12:46:16;22.80;99.90
55642;DHT22;41509;53.108;6.100;2022-08-27T12:48:54;22.60;99.90
55642;DHT22;41509;53.108;6.100;2022-08-27T12:51:30;22.60;99.90
55642;DHT22;41509;53.108;6.100;2022-08-27T12:54:23;22.80;99.90
55642;DHT22;41509;53.108;6.100;2022-08-27T13:00:00;22.80;99.90
55642;DHT22;41509;53.108;6.100;2022-08-27T13:02:41;22.80;99.90
55642;DHT22;41509;53.108;6.100;2022-08-27T13:05:10;22.90;99.90
55642;DHT22;41509;53.108;6.100;2022-08-27T13:07:42;23.00;99.90
55642;DHT22;41509;53.108;6.100;2022-08-27T13:10:15;23.20;99.90
55642;DHT22;41509;53.108;6.100;2022-08-27T13:12:43;23.30;99.90
55642;DHT22;41509;53.108;6.100;2022-08-27T13:15:12;23.40;99.90
55642;DHT22;41509;53.108;6.100;2022-08-27T13:17:41;23.30;99.90
55642;DHT22;41509;53.108;6.100;2022-08-27T13:20:18;23.20;99.90
55642;DHT22;41509;53.108;6.100;2022-08-27T13:22:46;23.00;99.90
55642;DHT22;41509;53.108;6.100;2022-08-27T13:25:31;23.00;99.90
55642;DHT22;41509;53.108;6.100;2022-08-27T13:28:05;23.20;99.90
55642;DHT22;41509;53.108;6.100;2022-08-27T13:30:38;23.30;99.90
55642;DHT22;41509;53.108;6.100;2022-08-27T13:33:07;23.40;99.90
55642;DHT22;41509;53.108;6.100;2022-08-27T13:35:35;23.40;99.90
55642;DHT22;41509;53.108;6.100;2022-08-27T13:38:03;23.20;99.90
55642;DHT22;41509;53.108;6.100;2022-08-27T13:40:37;23.20;99.90
55642;DHT22;41509;53.108;6.100;2022-08-27T13:43:15;23.30;99.80
55642;DHT22;41509;53.108;6.100;2022-08-27T13:45:41;23.40;99.70
55642;DHT22;41509;53.108;6.100;2022-08-27T13:48:12;23.50;99.10
55642;DHT22;41509;53.108;6.100;2022-08-27T13:50:48;23.30;98.90
55642;DHT22;41509;53.108;6.100;2022-08-27T13:53:24;23.30;99.70
55642;DHT22;41509;53.108;6.100;2022-08-27T13:56:09;23.20;99.80
55642;DHT22;41509;53.108;6.100;2022-08-27T13:58:36;23.00;99.90
55642;DHT22;41509;53.108;6.100;2022-08-27T14:01:12;22.80;99.90
55642;DHT22;41509;53.108;6.100;2022-08-27T14:03:56;22.70;99.90
55642;DHT22;41509;53.108;6.100;2022-08-27T14:06:30;22.70;99.90
55642;DHT22;41509;53.108;6.100;2022-08-27T14:08:57;22.60;99.90
55642;DHT22;41509;53.108;6.100;2022-08-27T14:11:24;22.50;99.90
55642;DHT22;41509;53.108;6.100;2022-08-27T14:13:53;22.30;99.90
55642;DHT22;41509;53.108;6.100;2022-08-27T14:16:25;22.30;99.90
55642;DHT22;41509;53.108;6.100;2022-08-27T14:19:10;22.40;99.90
55642;DHT22;41509;53.108;6.100;2022-08-27T14:21:39;22.60;99.90
55642;DHT22;41509;53.108;6.100;2022-08-27T14:24:06;22.90;99.90
55642;DHT22;41509;53.108;6.100;2022-08-27T14:26:32;23.10;99.50
55642;DHT22;41509;53.108;6.100;2022-08-27T14:28:57;23.00;98.90
55642;DHT22;41509;53.108;6.100;2022-08-27T14:31:24;22.90;97.50
55642;DHT22;41509;53.108;6.100;2022-08-27T14:33:51;22.80;98.80
55642;DHT22;41509;53.108;6.100;2022-08-27T14:36:20;22.70;98.80
55642;DHT22;41509;53.108;6.100;2022-08-27T14:38:49;22.60;99.00
55642;DHT22;41509;53.108;6.100;2022-08-27T14:41:16;22.50;99.00
55642;DHT22;41509;53.108;6.100;2022-08-27T14:43:42;22.30;99.20
55642;DHT22;41509;53.108;6.100;2022-08-27T14:46:10;22.30;99.40
55642;DHT22;41509;53.108;6.100;2022-08-27T14:48:37;22.30;99.50
55642;DHT22;41509;53.108;6.100;2022-08-27T14:51:13;22.50;99.90
55642;DHT22;41509;53.108;6.100;2022-08-27T14:53:42;22.70;99.90
55642;DHT22;41509;53.108;6.100;2022-08-27T14:56:08;22.70;99.70
55642;DHT22;41509;53.108;6.100;2022-08-27T14:58:34;22.60;99.40
55642;DHT22;41509;53.108;6.100;2022-08-27T15:01:00;22.40;99.30
55642;DHT22;41509;53.108;6.100;2022-08-27T15:03:26;22.20;98.70
55642;DHT22;41509;53.108;6.100;2022-08-27T15:05:52;22.10;99.50
55642;DHT22;41509;53.108;6.100;2022-08-27T15:08:22;22.10;99.10
55642;DHT22;41509;53.108;6.100;2022-08-27T15:10:49;22.30;99.80
55642;DHT22;41509;53.108;6.100;2022-08-27T15:13:16;22.40;99.20
55642;DHT22;41509;53.108;6.100;2022-08-27T15:15:42;22.30;98.10
55642;DHT22;41509;53.108;6.100;2022-08-27T15:18:07;22.10;99.00
55642;DHT22;41509;53.108;6.100;2022-08-27T15:20:34;22.00;99.30
55642;DHT22;41509;53.108;6.100;2022-08-27T15:23:00;21.90;99.70
55642;DHT22;41509;53.108;6.100;2022-08-27T15:25:26;21.70;99.90
55642;DHT22;41509;53.108;6.100;2022-08-27T15:27:52;21.60;99.90
55642;DHT22;41509;53.108;6.100;2022-08-27T15:30:26;21.50;99.90
55642;DHT22;41509;53.108;6.100;2022-08-27T15:32:53;21.40;99.90
55642;DHT22;41509;53.108;6.100;2022-08-27T15:35:22;21.20;99.90
55642;DHT22;41509;53.108;6.100;2022-08-27T15:37:50;21.10;99.90
55642;DHT22;41509;53.108;6.100;2022-08-27T15:40:17;21.10;99.90
55642;DHT22;41509;53.108;6.100;2022-08-27T15:42:44;21.00;99.90
55642;DHT22;41509;53.108;6.100;2022-08-27T15:45:12;21.10;99.90
55642;DHT22;41509;53.108;6.100;2022-08-27T15:47:38;21.00;99.90
55642;DHT22;41509;53.108;6.100;2022-08-27T15:50:04;20.90;99.90
55642;DHT22;41509;53.108;6.100;2022-08-27T15:52:30;20.90;99.90
55642;DHT22;41509;53.108;6.100;2022-08-27T15:54:56;20.80;99.90
55642;DHT22;41509;53.108;6.100;2022-08-27T15:57:22;20.80;99.90
55642;DHT22;41509;53.108;6.100;2022-08-27T15:59:48;20.70;99.90
55642;DHT22;41509;53.108;6.100;2022-08-27T16:02:15;20.70;99.90
55642;DHT22;41509;53.108;6.100;2022-08-27T16:04:43;20.60;99.90
55642;DHT22;41509;53.108;6.100;2022-08-27T16:07:09;20.50;99.90
55642;DHT22;41509;53.108;6.100;2022-08-27T16:09:35;20.60;99.90
55642;DHT22;41509;53.108;6.100;2022-08-27T16:12:00;20.60;99.90
55642;DHT22;41509;53.108;6.100;2022-08-27T16:14:26;20.50;99.90
55642;DHT22;41509;53.108;6.100;2022-08-27T16:16:52;20.50;99.90
55642;DHT22;41509;53.108;6.100;2022-08-27T16:19:18;20.40;99.90
55642;DHT22;41509;53.108;6.100;2022-08-27T16:21:45;20.40;99.90
55642;DHT22;41509;53.108;6.100;2022-08-27T16:24:12;20.40;99.90
55642;DHT22;41509;53.108;6.100;2022-08-27T16:26:38;20.50;99.90
55642;DHT22;41509;53.108;6.100;2022-08-27T16:29:04;20.50;99.90
55642;DHT22;41509;53.108;6.100;2022-08-27T16:31:30;20.50;99.90
55642;DHT22;41509;53.108;6.100;2022-08-27T16:33:57;20.50;99.90
55642;DHT22;41509;53.108;6.100;2022-08-27T16:36:23;20.50;99.90
55642;DHT22;41509;53.108;6.100;2022-08-27T16:38:49;20.50;99.90
55642;DHT22;41509;53.108;6.100;2022-08-27T16:41:15;20.40;99.90
55642;DHT22;41509;53.108;6.100;2022-08-27T16:43:41;20.40;99.90
55642;DHT22;41509;53.108;6.100;2022-08-27T16:46:07;20.40;99.90
55642;DHT22;41509;53.108;6.100;2022-08-27T16:48:33;20.30;99.90
55642;DHT22;41509;53.108;6.100;2022-08-27T16:51:25;20.20;99.90